Time;durP1;ratioP1;P1;durP2;ratioP2;P2;SDS_P1;SDS_P2;PMS_P1;PMS_P2;Temp;Humidity;BMP_temperature;BMP_pressure;BME280_temperature;BME280_humidity;BME280_pressure;Samples;Min_cycle;Max_cycle;Signal;HPM_P1;HPM_P2
2022/05/07 00:01:45;;;;;;;19.23;14.10;;;;;;;12.80;73.37;102270.88;5022726;28;20546;-69
2022/05/07 00:04:10;;;;;;;18.17;13.23;;;;;;;12.88;73.18;102265.63;5022063;28;20395;-69
2022/05/07 00:06:36;;;;;;;17.33;13.82;;;;;;;12.94;72.90;102268.53;5023285;28;20083;-68
2022/05/07 00:09:02;;;;;;;17.30;13.77;;;;;;;13.00;72.68;102259.91;5025820;28;20028;-69
2022/05/07 00:11:27;;;;;;;17.67;14.13;;;;;;;13.09;72.76;102254.69;5024498;28;20014;-69
2022/05/07 00:13:52;;;;;;;23.25;13.65;;;;;;;13.14;72.32;102255.06;5029704;28;20406;-69
2022/05/07 00:19:02;;;;;;;18.67;14.32;;;;;;;13.16;72.06;102253.91;5025136;28;20049;-69
2022/05/07 00:21:27;;;;;;;16.10;14.27;;;;;;;13.20;72.09;102249.13;5026039;28;20030;-69
2022/05/07 00:23:52;;;;;;;15.90;14.20;;;;;;;13.18;72.09;102251.13;5029853;28;20033;-69
2022/05/07 00:26:18;;;;;;;17.55;13.95;;;;;;;13.22;72.12;102245.31;5028882;28;20099;-69
2022/05/07 00:28:45;;;;;;;20.05;14.07;;;;;;;13.25;72.31;102244.19;5023307;28;20130;-69
2022/05/07 00:31:10;;;;;;;18.20;14.50;;;;;;;13.17;72.14;102244.94;5021190;28;20092;-69
2022/05/07 00:33:36;;;;;;;18.25;14.07;;;;;;;13.18;72.36;102251.13;5023835;28;20517;-69
2022/05/07 00:36:01;;;;;;;17.52;13.55;;;;;;;13.24;71.97;102242.50;5025776;28;20029;-69
2022/05/07 00:38:27;;;;;;;19.33;13.30;;;;;;;13.23;72.14;102241.66;5018724;28;20035;-69
2022/05/07 00:40:52;;;;;;;19.75;14.23;;;;;;;13.27;72.02;102236.84;5025754;28;20769;-69
2022/05/07 00:43:18;;;;;;;20.65;13.57;;;;;;;13.23;71.94;102233.66;5027048;28;20025;-69
2022/05/07 00:45:44;;;;;;;17.10;13.93;;;;;;;13.29;72.09;102240.19;5027238;28;20029;-69
2022/05/07 00:48:11;;;;;;;19.35;13.80;;;;;;;13.14;71.99;102228.38;5030046;28;20479;-69
2022/05/07 00:53:22;;;;;;;36.47;13.88;;;;;;;13.08;71.88;102229.00;5029653;28;20036;-70
2022/05/07 00:55:49;;;;;;;36.58;14.10;;;;;;;12.99;71.92;102236.06;5022706;28;20021;-69
2022/05/07 00:58:15;;;;;;;35.50;14.70;;;;;;;12.88;72.11;102229.16;5029627;28;20462;-69
2022/05/07 01:00:43;;;;;;;20.25;14.35;;;;;;;12.85;72.66;102228.63;5028926;28;20187;-69
2022/05/07 01:03:09;;;;;;;22.60;14.45;;;;;;;12.73;72.54;102230.66;5025746;28;20037;-69
2022/05/07 01:05:34;;;;;;;18.50;14.50;;;;;;;12.76;72.74;102233.03;5025139;28;20009;-69
2022/05/07 01:08:00;;;;;;;17.98;14.65;;;;;;;12.75;72.99;102227.84;5021493;28;20029;-69
2022/05/07 01:10:27;;;;;;;23.23;14.65;;;;;;;12.73;73.17;102232.50;5025549;28;20029;-69
2022/05/07 01:12:54;;;;;;;18.83;14.20;;;;;;;12.74;73.34;102228.84;5022532;28;20029;-69
2022/05/07 01:15:19;;;;;;;17.45;14.73;;;;;;;12.81;73.14;102216.59;5019626;28;20030;-69
2022/05/07 01:17:45;;;;;;;17.33;13.75;;;;;;;12.91;72.87;102222.66;5023629;28;20033;-69
2022/05/07 01:20:12;;;;;;;22.23;14.32;;;;;;;12.93;73.12;102228.69;5020741;28;20593;-69
2022/05/07 01:22:38;;;;;;;20.58;14.10;;;;;;;12.97;72.87;102227.38;5022913;28;20029;-69
2022/05/07 01:25:04;;;;;;;18.77;14.15;;;;;;;12.92;73.02;102219.00;5023156;28;20032;-69
2022/05/07 01:27:30;;;;;;;18.75;13.95;;;;;;;12.85;73.05;102224.13;5027219;28;20025;-69
2022/05/07 01:29:55;;;;;;;17.77;13.80;;;;;;;12.88;73.40;102222.97;5020949;28;20045;-68
2022/05/07 01:32:22;;;;;;;18.27;13.30;;;;;;;12.82;73.36;102224.44;5016346;28;20105;-69
2022/05/07 01:34:47;;;;;;;17.75;14.13;;;;;;;12.85;73.28;102218.78;5020325;28;20024;-69
2022/05/07 01:37:12;;;;;;;17.55;14.38;;;;;;;12.86;73.52;102222.28;5027872;28;20465;-69
2022/05/07 01:39:38;;;;;;;21.13;14.65;;;;;;;12.88;73.26;102214.97;5027699;28;20026;-69
2022/05/07 01:42:03;;;;;;;20.95;14.57;;;;;;;12.87;73.11;102214.13;5024341;28;20037;-68
2022/05/07 01:44:29;;;;;;;18.52;14.45;;;;;;;12.87;73.22;102214.13;5027117;28;20502;-69
2022/05/07 01:49:38;;;;;;;18.80;15.50;;;;;;;12.90;73.34;102205.00;5027550;28;20044;-68
2022/05/07 01:52:03;;;;;;;19.30;15.50;;;;;;;12.89;73.16;102205.97;5026137;28;20038;-68
2022/05/07 01:54:28;;;;;;;23.27;15.43;;;;;;;12.95;73.32;102202.69;5018423;28;20026;-69
2022/05/07 01:56:54;;;;;;;21.33;16.30;;;;;;;12.92;73.06;102203.84;5020471;28;20033;-68
2022/05/07 01:59:19;;;;;;;18.83;15.35;;;;;;;12.95;73.23;102195.53;5021642;28;20071;-68
2022/05/07 02:01:44;;;;;;;20.67;16.00;;;;;;;12.96;72.69;102197.22;5019893;28;20034;-68
2022/05/07 02:04:10;;;;;;;20.33;17.02;;;;;;;12.94;73.59;102199.19;5021832;28;20031;-69
2022/05/07 02:06:35;;;;;;;22.27;16.40;;;;;;;12.93;73.03;102199.34;5020930;28;20099;-68
2022/05/07 02:09:00;;;;;;;23.83;19.55;;;;;;;12.85;73.30;102202.78;5021899;28;20043;-69
2022/05/07 02:11:26;;;;;;;22.27;17.13;;;;;;;12.91;73.51;102193.34;5037501;28;20045;-68
2022/05/07 02:13:51;;;;;;;22.65;17.73;;;;;;;12.96;73.45;102197.22;5022061;28;20191;-69
2022/05/07 02:16:16;;;;;;;23.20;18.52;;;;;;;13.04;73.49;102188.47;5020894;28;20038;-68
2022/05/07 02:18:41;;;;;;;20.35;17.48;;;;;;;13.07;73.53;102190.00;5022710;28;20036;-68
2022/05/07 02:21:07;;;;;;;22.38;17.88;;;;;;;13.08;73.20;102189.84;5019590;28;20056;-68
2022/05/07 02:23:32;;;;;;;21.05;17.92;;;;;;;13.09;73.08;102191.50;5017405;28;20041;-68
2022/05/07 02:25:57;;;;;;;24.00;18.48;;;;;;;13.08;73.46;102186.34;5021939;28;20472;-68
2022/05/07 02:28:22;;;;;;;20.92;17.98;;;;;;;13.09;73.01;102188.84;5017854;28;20033;-69
2022/05/07 02:30:48;;;;;;;22.05;17.83;;;;;;;13.00;73.31;102181.75;5021927;28;20031;-68
2022/05/07 02:33:13;;;;;;;22.15;18.80;;;;;;;13.01;73.66;102183.44;5019431;28;20396;-69
2022/05/07 02:35:38;;;;;;;25.15;17.98;;;;;;;12.89;73.88;102179.31;5020771;28;20041;-68
2022/05/07 02:38:04;;;;;;;21.92;17.35;;;;;;;12.79;73.82;102187.41;5017896;28;20032;-68
2022/05/07 02:40:29;;;;;;;19.88;16.98;;;;;;;12.87;73.65;102182.16;5020366;28;21750;-68
2022/05/07 02:42:54;;;;;;;22.48;17.52;;;;;;;12.85;73.55;102183.28;5018765;28;20380;-69
2022/05/07 02:45:19;;;;;;;20.33;17.60;;;;;;;12.86;74.21;102174.31;5017523;28;20021;-69
2022/05/07 02:47:45;;;;;;;23.48;18.25;;;;;;;12.80;74.16;102173.09;5021336;28;20021;-69
2022/05/07 02:50:11;;;;;;;21.83;17.17;;;;;;;12.81;74.02;102179.25;5018274;28;20048;-68
2022/05/07 02:52:38;;;;;;;23.70;17.48;;;;;;;12.78;73.97;102188.41;5020457;28;20033;-68
2022/05/07 02:55:05;;;;;;;22.08;17.88;;;;;;;12.77;74.29;102188.56;5019657;28;20021;-69
2022/05/07 02:57:31;;;;;;;23.80;17.65;;;;;;;12.71;74.24;102181.97;5022593;28;20041;-68
2022/05/07 02:59:56;;;;;;;20.98;17.10;;;;;;;12.73;74.04;102180.03;5024223;28;20033;-69
2022/05/07 03:02:21;;;;;;;27.00;18.05;;;;;;;12.70;74.26;102191.81;5018127;28;20037;-68
2022/05/07 03:04:48;;;;;;;24.95;17.95;;;;;;;12.76;73.84;102176.22;5021420;28;20022;-68
2022/05/07 03:07:14;;;;;;;21.02;17.60;;;;;;;12.71;73.91;102181.97;5018002;28;20025;-68
2022/05/07 03:09:39;;;;;;;23.20;17.63;;;;;;;12.73;74.00;102179.19;5024462;28;20087;-69
2022/05/07 03:12:05;;;;;;;21.70;17.60;;;;;;;12.75;73.95;102182.53;5021987;28;20033;-68
2022/05/07 03:14:31;;;;;;;20.50;16.48;;;;;;;12.65;73.85;102185.25;5017859;28;20029;-69
2022/05/07 03:16:56;;;;;;;21.20;17.00;;;;;;;12.65;73.97;102182.59;5019558;28;20028;-68
2022/05/07 03:19:21;;;;;;;23.33;17.98;;;;;;;12.61;73.98;102183.88;5016562;28;20120;-68
2022/05/07 03:21:47;;;;;;;22.42;17.90;;;;;;;12.63;74.18;102182.75;5023808;28;20025;-69
2022/05/07 03:24:12;;;;;;;24.05;18.58;;;;;;;12.73;74.03;102181.84;5018840;28;20110;-69
2022/05/07 03:26:37;;;;;;;23.10;18.00;;;;;;;12.66;74.26;102182.44;5021744;28;20030;-69
2022/05/07 03:29:03;;;;;;;20.85;18.23;;;;;;;12.53;74.20;102179.31;5018813;28;20025;-69
2022/05/07 03:31:30;;;;;;;22.70;17.95;;;;;;;12.46;74.55;102180.06;5023128;28;20438;-68
2022/05/07 03:33:55;;;;;;;27.15;18.58;;;;;;;12.35;75.04;102178.44;5020610;28;20084;-69
2022/05/07 03:36:21;;;;;;;27.05;18.38;;;;;;;12.27;75.55;102181.00;5016874;28;21859;-68
2022/05/07 03:38:46;;;;;;;28.35;18.63;;;;;;;12.20;75.57;102175.44;5019923;28;20044;-68
2022/05/07 03:41:11;;;;;;;23.20;18.02;;;;;;;12.21;75.59;102193.09;5022008;28;20641;-68
2022/05/07 03:43:37;;;;;;;25.33;18.10;;;;;;;12.07;75.99;102183.78;5020084;28;20030;-68
2022/05/07 03:46:06;;;;;;;23.48;18.30;;;;;;;12.05;76.05;102190.22;5021401;28;20390;-68
2022/05/07 03:48:31;;;;;;;21.70;17.90;;;;;;;12.01;76.57;102181.69;5021656;28;20037;-68
2022/05/07 03:50:57;;;;;;;21.50;17.48;;;;;;;11.95;76.78;102189.44;5018497;28;20486;-68
2022/05/07 03:53:32;;;;;;;23.05;17.75;;;;;;;11.91;76.79;102183.56;5019898;28;20045;-69
2022/05/07 03:56:03;;;;;;;22.80;18.23;;;;;;;11.92;77.14;102193.25;5022952;28;20014;-68
2022/05/07 03:58:29;;;;;;;24.35;17.85;;;;;;;11.90;77.29;102195.22;5020832;28;20030;-68
2022/05/07 04:00:56;;;;;;;24.52;17.40;;;;;;;11.88;77.52;102191.84;5020667;28;20071;-68
2022/05/07 04:03:22;;;;;;;21.85;17.00;;;;;;;11.89;77.98;102195.34;5020186;28;20096;-68
2022/05/07 04:05:47;;;;;;;22.10;16.92;;;;;;;11.79;78.09;102187.38;5019969;28;20510;-68
2022/05/07 04:08:12;;;;;;;24.02;16.80;;;;;;;11.85;78.19;102194.78;5021282;28;20025;-68
2022/05/07 04:10:38;;;;;;;25.85;16.98;;;;;;;11.87;77.94;102195.50;5021565;28;20029;-68
2022/05/07 04:13:04;;;;;;;21.17;16.85;;;;;;;11.84;78.26;102200.25;5019249;28;20075;-68
2022/05/07 04:15:30;;;;;;;19.92;17.15;;;;;;;11.83;78.08;102199.41;5022383;28;20021;-68
2022/05/07 04:17:58;;;;;;;23.10;17.00;;;;;;;11.88;78.14;102199.84;5023216;28;20059;-67
2022/05/07 04:20:23;;;;;;;21.90;16.80;;;;;;;11.90;77.98;102208.53;5025196;28;20425;-68
2022/05/07 04:22:48;;;;;;;23.20;17.40;;;;;;;11.92;78.25;102206.56;5021906;28;20554;-69
2022/05/07 04:25:14;;;;;;;22.33;17.60;;;;;;;11.93;78.58;102212.72;5022366;28;20022;-68
2022/05/07 04:27:39;;;;;;;20.27;16.67;;;;;;;11.93;78.24;102205.56;5023185;28;20040;-68
2022/05/07 04:30:05;;;;;;;19.08;15.82;;;;;;;11.93;78.57;102204.72;5022151;28;20060;-68
2022/05/07 04:32:31;;;;;;;22.23;16.65;;;;;;;11.95;78.25;102208.06;5027059;28;20069;-68
2022/05/07 04:34:56;;;;;;;19.60;17.25;;;;;;;11.96;78.29;102215.06;5020500;28;20056;-68
2022/05/07 04:37:22;;;;;;;21.42;16.38;;;;;;;11.96;78.24;102213.25;5023638;28;20499;-68
2022/05/07 04:39:47;;;;;;;23.30;16.88;;;;;;;12.01;77.96;102215.47;5024795;28;20037;-68
2022/05/07 04:42:13;;;;;;;22.85;16.77;;;;;;;11.92;78.39;102209.22;5023681;28;20099;-68
2022/05/07 04:44:38;;;;;;;21.25;16.85;;;;;;;11.98;78.33;102219.28;5022657;28;20482;-68
2022/05/07 04:47:05;;;;;;;22.73;17.25;;;;;;;12.01;78.61;102216.31;5026065;28;20025;-68
2022/05/07 04:49:31;;;;;;;35.13;23.80;;;;;;;12.08;78.52;102217.41;5025609;28;20465;-65
2022/05/07 04:51:56;;;;;;;28.48;20.88;;;;;;;12.15;78.80;102214.16;5023434;28;20043;-68
2022/05/07 04:54:22;;;;;;;27.77;22.52;;;;;;;12.21;78.42;102211.75;5015489;28;20690;-68
2022/05/07 04:56:48;;;;;;;25.08;19.42;;;;;;;12.26;78.15;102214.81;5018827;28;20398;-68
2022/05/07 04:59:15;;;;;;;33.75;23.70;;;;;;;12.37;78.42;102221.75;5020540;28;20025;-68
2022/05/07 05:01:40;;;;;;;33.15;22.58;;;;;;;12.39;78.01;102215.28;5020111;28;20034;-67
2022/05/07 05:04:06;;;;;;;34.28;23.17;;;;;;;12.47;77.62;102219.06;5019788;28;20034;-67
2022/05/07 05:06:31;;;;;;;30.08;22.38;;;;;;;12.49;77.47;102215.25;5028955;28;20075;-67
2022/05/07 05:08:56;;;;;;;33.35;22.83;;;;;;;12.60;77.61;102230.19;5027740;28;20529;-68
2022/05/07 05:11:22;;;;;;;36.60;24.10;;;;;;;12.65;77.30;102228.72;5024175;28;20067;-68
2022/05/07 05:13:47;;;;;;;32.67;23.27;;;;;;;12.68;76.88;102233.75;5020495;28;20037;-68
2022/05/07 05:16:12;;;;;;;32.92;23.25;;;;;;;12.68;76.47;102233.75;5019430;28;20029;-67
2022/05/07 05:18:38;;;;;;;30.73;22.92;;;;;;;12.74;76.33;102235.00;5017711;28;20041;-68
2022/05/07 05:21:03;;;;;;;35.22;23.95;;;;;;;12.78;76.24;102241.72;5022818;28;20033;-68
2022/05/07 05:23:29;;;;;;;34.28;22.83;;;;;;;12.83;75.91;102249.25;5022497;28;20109;-68
2022/05/07 05:25:55;;;;;;;29.98;22.38;;;;;;;12.85;76.14;102250.78;5024436;28;20463;-68
2022/05/07 05:28:20;;;;;;;29.88;22.75;;;;;;;12.83;76.00;102250.09;5022595;28;20036;-68
2022/05/07 05:30:51;;;;;;;31.02;23.17;;;;;;;12.83;76.17;102249.25;5029032;28;20033;-68
2022/05/07 05:33:19;;;;;;;35.53;24.38;;;;;;;12.79;76.22;102263.88;5024468;28;20125;-68
2022/05/07 05:35:45;;;;;;;31.35;23.65;;;;;;;12.67;76.33;102256.06;5027441;28;20057;-68
2022/05/07 05:38:10;;;;;;;34.45;25.77;;;;;;;12.73;76.53;102267.16;5027255;28;20482;-68
2022/05/07 05:40:35;;;;;;;31.40;25.17;;;;;;;12.76;77.00;102261.53;5028066;28;20105;-68
2022/05/07 05:43:01;;;;;;;34.88;26.42;;;;;;;12.77;77.04;102261.38;5027756;28;20018;-68
2022/05/07 05:45:27;;;;;;;39.05;27.08;;;;;;;12.86;77.01;102267.63;5027902;28;20017;-68
2022/05/07 05:47:53;;;;;;;34.38;25.00;;;;;;;12.90;77.45;102271.66;5027390;28;20036;-68
2022/05/07 05:50:18;;;;;;;32.83;24.40;;;;;;;12.95;76.79;102262.19;5027927;28;20021;-68
2022/05/07 05:52:44;;;;;;;33.25;24.55;;;;;;;13.03;76.76;102275.66;5027015;28;20022;-68
2022/05/07 05:55:09;;;;;;;38.90;25.30;;;;;;;13.08;76.40;102267.19;5009136;28;20483;-68
2022/05/07 05:57:34;;;;;;;32.20;24.98;;;;;;;13.08;76.58;102261.84;5027833;28;20029;-68
2022/05/07 06:00:00;;;;;;;39.92;24.88;;;;;;;13.10;76.30;102262.53;5024822;28;20057;-68
2022/05/07 06:02:25;;;;;;;34.65;24.70;;;;;;;13.13;76.51;102264.06;5024363;28;20495;-68
2022/05/07 06:04:50;;;;;;;29.17;24.85;;;;;;;13.15;76.66;102273.56;5027440;28;20059;-68
2022/05/07 06:07:15;;;;;;;35.22;24.30;;;;;;;13.16;76.67;102267.25;5027465;28;20083;-68
2022/05/07 06:09:41;;;;;;;31.63;23.35;;;;;;;13.20;76.72;102271.31;5028091;28;20037;-68
2022/05/07 06:12:06;;;;;;;33.95;24.75;;;;;;;13.26;76.51;102269.88;5027859;28;20867;-68
2022/05/07 06:14:31;;;;;;;32.53;23.33;;;;;;;13.31;76.63;102278.28;5026848;28;20034;-68
2022/05/07 06:16:57;;;;;;;36.33;24.15;;;;;;;13.35;76.87;102265.47;5023420;28;20033;-68
2022/05/07 06:19:22;;;;;;;37.92;24.10;;;;;;;13.35;76.79;102266.28;5028111;28;20013;-68
2022/05/07 06:21:47;;;;;;;38.95;23.38;;;;;;;13.42;76.64;102269.19;5027464;28;20502;-68
2022/05/07 06:29:41;;;;;;;36.67;22.42;;;;;;;13.53;76.37;102263.59;5027540;28;20410;-68
2022/05/07 06:32:06;;;;;;;36.03;21.80;;;;;;;13.60;75.94;102270.00;5027757;28;20021;-68
2022/05/07 06:34:32;;;;;;;37.65;22.92;;;;;;;13.64;75.95;102276.72;5025099;28;20029;-68
2022/05/07 06:36:57;;;;;;;38.40;23.23;;;;;;;13.68;75.88;102270.06;5026977;28;20028;-68
2022/05/07 06:39:23;;;;;;;38.30;22.33;;;;;;;13.74;75.97;102277.44;5020774;28;20084;-68
2022/05/07 06:41:50;;;;;;;36.72;22.30;;;;;;;13.77;76.09;102281.63;5026812;28;20156;-68
2022/05/07 06:44:15;;;;;;;37.22;21.98;;;;;;;13.82;76.03;102273.97;5026753;28;20525;-68
2022/05/07 06:46:40;;;;;;;37.17;21.75;;;;;;;13.88;75.83;102271.53;5027031;28;20029;-68
2022/05/07 06:49:05;;;;;;;36.47;21.15;;;;;;;13.96;75.73;102281.44;5027418;28;20108;-68
2022/05/07 06:51:32;;;;;;;36.55;22.58;;;;;;;14.02;75.47;102282.63;5023351;28;20674;-68
2022/05/07 06:53:57;;;;;;;34.58;20.85;;;;;;;14.07;75.34;102278.47;5026516;28;20022;-68
2022/05/07 06:56:23;;;;;;;41.83;22.27;;;;;;;13.98;75.25;102254.56;5026277;28;20506;-68
2022/05/07 06:58:49;;;;;;;35.55;20.45;;;;;;;14.22;75.43;102276.06;5027497;28;20693;-67
2022/05/07 07:01:14;;;;;;;42.67;22.10;;;;;;;14.29;75.01;102284.28;5026929;28;20025;-68
2022/05/07 07:03:40;;;;;;;39.63;21.17;;;;;;;14.35;74.34;102278.28;5021826;28;20063;-68
2022/05/07 07:06:05;;;;;;;38.63;21.65;;;;;;;14.36;74.39;102280.81;5026769;28;20016;-68
2022/05/07 07:08:31;;;;;;;37.28;22.00;;;;;;;14.41;74.13;102275.81;5027417;28;20044;-68
2022/05/07 07:10:56;;;;;;;40.53;21.98;;;;;;;14.50;74.56;102279.41;5027782;28;20100;-68
2022/05/07 07:13:21;;;;;;;42.28;21.75;;;;;;;14.56;74.12;102287.63;5027145;28;20390;-67
2022/05/07 07:15:48;;;;;;;38.67;20.58;;;;;;;14.58;73.84;102282.09;5027115;28;20077;-68
2022/05/07 07:18:13;;;;;;;39.78;22.08;;;;;;;14.58;73.24;102279.44;5025594;28;20402;-68
2022/05/07 07:20:40;;;;;;;34.25;20.08;;;;;;;14.63;73.56;102285.13;5026679;28;20031;-68
2022/05/07 07:23:06;;;;;;;37.08;21.27;;;;;;;14.66;73.35;102282.13;5026040;28;20037;-68
2022/05/07 07:25:31;;;;;;;36.63;21.08;;;;;;;14.74;73.61;102270.59;5025226;28;20419;-68
2022/05/07 07:27:57;;;;;;;36.03;19.83;;;;;;;14.82;72.67;102271.50;5025621;28;20025;-68
2022/05/07 07:30:22;;;;;;;35.67;20.17;;;;;;;14.93;72.38;102278.34;5025959;28;20025;-67
2022/05/07 07:32:47;;;;;;;37.92;20.45;;;;;;;15.00;72.41;102273.19;5025873;28;20036;-68
2022/05/07 07:35:12;;;;;;;36.15;20.50;;;;;;;15.02;72.01;102269.34;5023403;28;20502;-68
2022/05/07 07:37:38;;;;;;;36.97;20.08;;;;;;;15.07;71.45;102274.22;5021019;28;20123;-67
2022/05/07 07:40:04;;;;;;;38.00;20.58;;;;;;;15.13;71.60;102274.38;5025974;28;20053;-68
2022/05/07 07:42:30;;;;;;;37.65;21.00;;;;;;;15.19;71.88;102273.72;5027156;28;20539;-67
2022/05/07 07:47:59;;;;;;;38.67;21.17;;;;;;;15.43;71.44;102282.78;5019844;28;20568;-68
2022/05/07 07:50:29;;;;;;;34.67;19.67;;;;;;;15.39;70.76;102281.44;5030456;28;20032;-67
2022/05/07 07:52:55;;;;;;;38.47;20.13;;;;;;;15.53;70.75;102278.06;5028951;28;20091;-68
2022/05/07 07:55:22;;;;;;;37.50;19.92;;;;;;;15.67;70.60;102284.66;5028346;28;20096;-68
2022/05/07 07:57:47;;;;;;;32.90;19.15;;;;;;;15.78;70.56;102279.75;5030476;28;20036;-67
2022/05/07 08:00:13;;;;;;;43.60;20.45;;;;;;;15.92;70.15;102280.09;5030536;28;20549;-67
2022/05/07 08:02:51;;;;;;;36.83;19.83;;;;;;;16.01;70.40;102284.41;5028503;28;20102;-68
2022/05/07 08:05:20;;;;;;;41.00;20.38;;;;;;;16.14;69.93;102278.50;5024173;28;20025;-68
2022/05/07 08:13:12;;;;;;;33.80;19.02;;;;;;;16.32;68.04;102282.66;5029760;28;20056;-68
2022/05/07 08:15:38;;;;;;;33.30;18.10;;;;;;;16.37;67.31;102284.81;5029719;28;20037;-68
2022/05/07 08:18:05;;;;;;;39.42;20.27;;;;;;;16.37;67.36;102284.81;5030557;28;20490;-68
2022/05/07 08:20:30;;;;;;;31.98;19.13;;;;;;;16.49;66.73;102286.13;5029525;28;20021;-68
2022/05/07 08:22:55;;;;;;;34.85;18.40;;;;;;;16.64;66.65;102288.88;5029609;28;20017;-67
2022/05/07 08:25:20;;;;;;;34.90;18.65;;;;;;;16.69;66.40;102287.38;5029348;28;20013;-68
2022/05/07 08:27:46;;;;;;;37.28;19.60;;;;;;;16.81;66.10;102292.38;5030226;28;20025;-68
2022/05/07 08:30:11;;;;;;;36.25;18.98;;;;;;;16.86;65.83;102290.00;5024126;28;20030;-68
2022/05/07 08:32:37;;;;;;;29.95;17.23;;;;;;;16.92;65.31;102292.78;5030023;28;20475;-68
2022/05/07 08:35:02;;;;;;;39.33;19.42;;;;;;;16.96;65.24;102291.44;5027951;28;20025;-68
2022/05/07 08:37:27;;;;;;;34.83;18.88;;;;;;;17.07;65.43;102292.88;5029945;28;20246;-67
2022/05/07 08:39:53;;;;;;;28.38;16.50;;;;;;;17.19;64.67;102301.34;5029286;28;20018;-68
2022/05/07 08:42:18;;;;;;;26.65;14.25;;;;;;;17.29;63.60;102296.56;5029356;28;20083;-68
2022/05/07 08:44:43;;;;;;;26.08;12.63;;;;;;;17.42;62.05;102299.50;5027178;28;20022;-69
2022/05/07 08:47:09;;;;;;;23.98;14.15;;;;;;;17.56;61.74;102297.88;5028640;28;20583;-67
2022/05/07 08:49:34;;;;;;;33.00;15.13;;;;;;;17.62;61.60;102289.09;5029115;28;20048;-68
2022/05/07 08:52:02;;;;;;;30.77;15.30;;;;;;;17.80;60.89;102291.47;5029848;28;20112;-68
2022/05/07 08:54:30;;;;;;;25.95;14.45;;;;;;;17.82;60.62;102292.97;5027899;28;20107;-68
2022/05/07 08:56:56;;;;;;;25.45;15.30;;;;;;;17.90;60.17;102297.41;5029935;28;20053;-68
2022/05/07 08:59:22;;;;;;;23.52;13.90;;;;;;;17.93;59.77;102289.84;5028141;28;20056;-68
2022/05/07 09:01:47;;;;;;;32.45;15.27;;;;;;;18.10;59.81;102295.03;5029965;28;20394;-68
2022/05/07 09:04:13;;;;;;;28.98;14.98;;;;;;;18.16;59.37;102300.50;5023193;28;20025;-68
2022/05/07 09:06:39;;;;;;;27.10;15.30;;;;;;;18.23;59.06;102301.47;5029059;28;20033;-68
2022/05/07 09:09:06;;;;;;;28.23;15.15;;;;;;;18.29;59.59;102299.88;5025698;28;20037;-68
2022/05/07 09:11:42;;;;;;;27.08;15.57;;;;;;;18.36;58.60;102292.72;5022898;28;20116;-68
2022/05/07 09:14:07;;;;;;;28.15;15.00;;;;;;;18.50;58.89;102297.28;5017901;28;20032;-68
2022/05/07 09:16:46;;;;;;;33.70;15.23;;;;;;;18.65;58.12;102294.56;5024628;28;20029;-68
2022/05/07 09:19:27;;;;;;;32.88;17.05;;;;;;;18.84;58.21;102285.91;5024860;28;20055;-68
2022/05/07 09:22:07;;;;;;;28.38;15.82;;;;;;;19.03;58.38;102276.38;5026345;28;20033;-68
2022/05/07 09:24:33;;;;;;;31.27;16.15;;;;;;;19.28;57.91;102281.38;5023576;28;20091;-68
2022/05/07 09:26:58;;;;;;;30.67;18.05;;;;;;;19.38;58.08;102279.22;5024764;28;20037;-68
2022/05/07 09:29:27;;;;;;;34.15;16.40;;;;;;;19.69;58.54;102285.09;5024221;28;20108;-68
2022/05/07 09:31:53;;;;;;;32.33;16.58;;;;;;;19.91;57.94;102283.16;5024025;28;20501;-68
2022/05/07 09:37:18;;;;;;;30.15;15.27;;;;;;;20.42;57.19;102294.50;5020918;28;20048;-68
2022/05/07 09:39:51;;;;;;;27.13;16.05;;;;;;;20.72;56.10;102289.66;5023763;28;20483;-68
2022/05/07 09:42:21;;;;;;;29.00;14.95;;;;;;;20.72;55.09;102296.91;5019283;28;20099;-69
2022/05/07 09:44:48;;;;;;;28.13;14.52;;;;;;;20.72;53.10;102295.06;5017694;28;20395;-69
2022/05/07 09:47:14;;;;;;;27.15;15.32;;;;;;;20.67;53.46;102294.81;5026115;28;20112;-68
2022/05/07 09:52:29;;;;;;;22.08;13.40;;;;;;;20.92;52.63;102295.13;5021568;28;20434;-68
2022/05/07 09:57:39;;;;;;;24.52;12.98;;;;;;;21.11;51.57;102300.78;5019174;28;20103;-68
2022/05/07 10:00:07;;;;;;;20.80;12.63;;;;;;;21.23;51.41;102299.13;5023968;28;20021;-69
2022/05/07 10:03:06;;;;;;;24.17;12.73;;;;;;;21.51;51.95;102285.47;5020097;28;20025;-68
2022/05/07 10:05:53;;;;;;;23.48;13.82;;;;;;;21.73;51.38;102300.44;5021835;28;20574;-69
2022/05/07 10:08:39;;;;;;;22.92;12.63;;;;;;;21.90;50.96;102290.84;5020893;28;20021;-68
2022/05/07 10:11:07;;;;;;;24.10;13.48;;;;;;;21.81;50.06;102294.81;5026365;28;20032;-67
2022/05/07 10:13:33;;;;;;;21.30;12.45;;;;;;;22.00;49.74;102284.19;5025917;28;20029;-68
2022/05/07 10:16:03;;;;;;;25.80;13.30;;;;;;;21.88;49.18;102286.69;5020077;28;20690;-68
2022/05/07 10:18:41;;;;;;;23.90;12.43;;;;;;;21.95;49.00;102279.38;5024055;28;20029;-67
2022/05/07 10:21:18;;;;;;;23.33;13.02;;;;;;;21.87;48.83;102288.56;5021113;28;20037;-68
2022/05/07 10:23:54;;;;;;;23.90;13.70;;;;;;;22.14;49.09;102281.25;5025150;28;20061;-68
2022/05/07 10:26:22;;;;;;;21.73;13.48;;;;;;;22.44;50.13;102278.88;5022762;28;20424;-68
2022/05/07 10:28:48;;;;;;;24.77;13.05;;;;;;;22.64;49.84;102289.63;5027226;28;20057;-68
2022/05/07 10:31:18;;;;;;;21.35;13.35;;;;;;;22.80;49.09;102289.13;5020016;28;20054;-68
2022/05/07 10:33:44;;;;;;;20.75;12.77;;;;;;;23.06;48.59;102282.75;5026319;28;20544;-67
2022/05/07 10:36:10;;;;;;;22.15;12.77;;;;;;;23.13;47.85;102278.13;5025271;28;20029;-69
2022/05/07 10:38:37;;;;;;;26.02;13.32;;;;;;;22.96;46.64;102279.69;5026681;28;20091;-70
2022/05/07 10:41:11;;;;;;;21.25;13.40;;;;;;;22.65;45.53;102277.75;5025461;28;20121;-68
2022/05/07 10:43:42;;;;;;;22.15;13.27;;;;;;;22.61;45.81;102270.28;5025874;28;20029;-68
2022/05/07 10:46:16;;;;;;;23.13;13.82;;;;;;;22.72;46.63;102280.41;5026190;28;20049;-68
2022/05/07 10:48:45;;;;;;;25.15;13.18;;;;;;;22.64;46.29;102277.97;5021129;28;20048;-68
2022/05/07 10:51:21;;;;;;;24.17;13.75;;;;;;;22.93;47.20;102266.59;5023629;28;20037;-68
2022/05/07 10:53:48;;;;;;;21.63;13.25;;;;;;;22.94;45.69;102270.13;5018683;28;20022;-68
2022/05/07 10:56:19;;;;;;;22.85;13.57;;;;;;;22.98;45.78;102272.19;5016573;28;20805;-68
2022/05/07 10:58:50;;;;;;;24.48;15.25;;;;;;;22.86;46.88;102273.94;5022781;28;20196;-68
2022/05/07 11:01:17;;;;;;;22.35;14.50;;;;;;;22.92;46.72;102269.53;5021239;28;20017;-68
2022/05/07 11:03:43;;;;;;;22.08;13.93;;;;;;;23.21;47.23;102262.66;5021142;28;20059;-68
2022/05/07 11:06:09;;;;;;;20.92;13.90;;;;;;;23.29;47.39;102268.63;5019631;28;20029;-69
2022/05/07 11:08:45;;;;;;;24.48;13.82;;;;;;;23.25;46.64;102270.13;5018254;28;20044;-68
2022/05/07 11:11:11;;;;;;;23.52;14.32;;;;;;;23.10;46.72;102266.88;5015041;28;20113;-68
2022/05/07 11:13:50;;;;;;;23.05;13.80;;;;;;;23.04;46.98;102270.47;5017995;28;20087;-68
2022/05/07 11:16:20;;;;;;;21.23;13.85;;;;;;;23.07;47.15;102265.44;5014917;28;20045;-68
2022/05/07 11:18:50;;;;;;;22.13;13.88;;;;;;;23.20;47.05;102261.81;5017277;28;20483;-69
2022/05/07 11:21:16;;;;;;;22.67;12.10;;;;;;;23.47;45.92;102267.88;5016064;28;20960;-69
2022/05/07 11:23:43;;;;;;;19.30;12.77;;;;;;;23.78;45.83;102273.25;5014791;28;20030;-69
2022/05/07 11:26:16;;;;;;;22.80;12.75;;;;;;;23.58;44.82;102269.06;5022766;28;20021;-69
2022/05/07 11:28:43;;;;;;;20.48;12.48;;;;;;;23.51;44.48;102263.66;5019708;28;20406;-69
2022/05/07 11:31:10;;;;;;;17.08;12.52;;;;;;;23.33;44.79;102260.88;5023387;28;20025;-67
2022/05/07 11:33:35;;;;;;;18.73;12.60;;;;;;;23.33;45.78;102259.00;5023192;28;20017;-67
2022/05/07 11:36:02;;;;;;;21.27;12.23;;;;;;;23.10;45.39;102259.59;5027659;28;20099;-69
2022/05/07 11:38:27;;;;;;;18.25;12.02;;;;;;;23.03;45.56;102261.50;5029350;28;20025;-68